sensor_id;sensor_type;location;lat;lon;timestamp;temperature;humidity
9167;DHT22;4618;48.818;9.088;2022-10-18T00:01:25;12.60;99.90
9167;DHT22;4618;48.818;9.088;2022-10-18T00:03:51;12.60;99.90
9167;DHT22;4618;48.818;9.088;2022-10-18T00:06:16;12.50;99.90
9167;DHT22;4618;48.818;9.088;2022-10-18T00:08:42;12.60;99.90
9167;DHT22;4618;48.818;9.088;2022-10-18T00:11:08;12.60;99.90
9167;DHT22;4618;48.818;9.088;2022-10-18T00:13:33;12.70;99.90
9167;DHT22;4618;48.818;9.088;2022-10-18T00:16:02;12.80;99.90
9167;DHT22;4618;48.818;9.088;2022-10-18T00:18:28;12.80;99.90
9167;DHT22;4618;48.818;9.088;2022-10-18T00:21:02;12.80;99.90
9167;DHT22;4618;48.818;9.088;2022-10-18T00:23:28;12.80;99.90
9167;DHT22;4618;48.818;9.088;2022-10-18T00:26:10;12.90;99.90
9167;DHT22;4618;48.818;9.088;2022-10-18T00:28:36;13.00;99.90
9167;DHT22;4618;48.818;9.088;2022-10-18T00:31:20;12.90;99.90
9167;DHT22;4618;48.818;9.088;2022-10-18T00:33:48;12.80;99.90
9167;DHT22;4618;48.818;9.088;2022-10-18T00:36:14;12.80;99.90
9167;DHT22;4618;48.818;9.088;2022-10-18T00:38:40;12.70;99.90
9167;DHT22;4618;48.818;9.088;2022-10-18T00:41:09;12.60;99.90
9167;DHT22;4618;48.818;9.088;2022-10-18T00:43:59;12.70;99.90
9167;DHT22;4618;48.818;9.088;2022-10-18T00:46:30;12.70;99.90
9167;DHT22;4618;48.818;9.088;2022-10-18T00:49:00;12.70;99.90
9167;DHT22;4618;48.818;9.088;2022-10-18T00:51:31;12.70;99.90
9167;DHT22;4618;48.818;9.088;2022-10-18T00:53:58;12.80;99.90
9167;DHT22;4618;48.818;9.088;2022-10-18T00:56:24;13.00;99.90
9167;DHT22;4618;48.818;9.088;2022-10-18T00:58:50;13.10;99.90
9167;DHT22;4618;48.818;9.088;2022-10-18T01:01:16;13.20;99.90
9167;DHT22;4618;48.818;9.088;2022-10-18T01:03:42;13.30;99.90
9167;DHT22;4618;48.818;9.088;2022-10-18T01:06:08;13.30;99.90
9167;DHT22;4618;48.818;9.088;2022-10-18T01:09:06;13.40;99.90
9167;DHT22;4618;48.818;9.088;2022-10-18T01:17:16;13.40;99.90
9167;DHT22;4618;48.818;9.088;2022-10-18T01:22:55;13.50;99.90
9167;DHT22;4618;48.818;9.088;2022-10-18T01:26:11;13.50;99.90
9167;DHT22;4618;48.818;9.088;2022-10-18T01:31:17;13.60;99.90
9167;DHT22;4618;48.818;9.088;2022-10-18T01:33:50;13.70;99.90
9167;DHT22;4618;48.818;9.088;2022-10-18T01:38:46;13.80;37.40
9167;DHT22;4618;48.818;9.088;2022-10-18T01:41:13;13.80;65.50
9167;DHT22;4618;48.818;9.088;2022-10-18T01:43:42;13.90;13.00
9167;DHT22;4618;48.818;9.088;2022-10-18T01:46:10;13.90;1.00
9167;DHT22;4618;48.818;9.088;2022-10-18T01:48:38;13.80;1.00
9167;DHT22;4618;48.818;9.088;2022-10-18T01:51:04;13.70;1.00
9167;DHT22;4618;48.818;9.088;2022-10-18T01:53:32;13.70;1.00
9167;DHT22;4618;48.818;9.088;2022-10-18T01:56:15;13.60;1.00
9167;DHT22;4618;48.818;9.088;2022-10-18T01:58:45;13.70;1.00
9167;DHT22;4618;48.818;9.088;2022-10-18T02:01:30;13.70;1.00
9167;DHT22;4618;48.818;9.088;2022-10-18T02:04:06;13.80;1.00
9167;DHT22;4618;48.818;9.088;2022-10-18T02:06:37;13.80;1.00
9167;DHT22;4618;48.818;9.088;2022-10-18T02:09:11;13.80;1.00
9167;DHT22;4618;48.818;9.088;2022-10-18T02:11:39;13.90;1.00
9167;DHT22;4618;48.818;9.088;2022-10-18T02:14:12;13.90;1.00
9167;DHT22;4618;48.818;9.088;2022-10-18T02:16:44;13.80;1.00
9167;DHT22;4618;48.818;9.088;2022-10-18T02:19:16;13.90;1.00
9167;DHT22;4618;48.818;9.088;2022-10-18T02:21:46;14.00;1.00
9167;DHT22;4618;48.818;9.088;2022-10-18T02:24:15;14.00;1.00
9167;DHT22;4618;48.818;9.088;2022-10-18T02:26:41;14.00;1.00
9167;DHT22;4618;48.818;9.088;2022-10-18T02:29:07;14.00;1.00
9167;DHT22;4618;48.818;9.088;2022-10-18T02:31:38;14.00;1.00
9167;DHT22;4618;48.818;9.088;2022-10-18T02:37:00;14.10;1.00
9167;DHT22;4618;48.818;9.088;2022-10-18T02:39:35;14.10;1.00
9167;DHT22;4618;48.818;9.088;2022-10-18T02:42:04;14.20;1.00
9167;DHT22;4618;48.818;9.088;2022-10-18T02:44:34;14.10;1.00
9167;DHT22;4618;48.818;9.088;2022-10-18T02:47:01;14.20;1.00
9167;DHT22;4618;48.818;9.088;2022-10-18T02:49:27;14.20;1.00
9167;DHT22;4618;48.818;9.088;2022-10-18T02:51:52;14.10;99.90
9167;DHT22;4618;48.818;9.088;2022-10-18T02:54:18;14.10;99.90
9167;DHT22;4618;48.818;9.088;2022-10-18T02:56:43;14.10;99.90
9167;DHT22;4618;48.818;9.088;2022-10-18T02:59:10;14.20;90.50
9167;DHT22;4618;48.818;9.088;2022-10-18T03:01:36;14.20;51.30
9167;DHT22;4618;48.818;9.088;2022-10-18T03:04:02;14.10;99.90
9167;DHT22;4618;48.818;9.088;2022-10-18T03:06:28;14.10;99.90
9167;DHT22;4618;48.818;9.088;2022-10-18T03:08:53;14.10;99.90
9167;DHT22;4618;48.818;9.088;2022-10-18T03:11:19;14.10;1.00
9167;DHT22;4618;48.818;9.088;2022-10-18T03:13:45;14.10;1.00
9167;DHT22;4618;48.818;9.088;2022-10-18T03:16:11;14.20;99.90
9167;DHT22;4618;48.818;9.088;2022-10-18T03:18:37;14.20;99.90
9167;DHT22;4618;48.818;9.088;2022-10-18T03:21:06;14.20;99.90
9167;DHT22;4618;48.818;9.088;2022-10-18T03:23:32;14.20;56.10
9167;DHT22;4618;48.818;9.088;2022-10-18T03:25:58;14.20;1.00
9167;DHT22;4618;48.818;9.088;2022-10-18T03:28:23;14.20;99.90
9167;DHT22;4618;48.818;9.088;2022-10-18T03:30:49;14.10;99.90
9167;DHT22;4618;48.818;9.088;2022-10-18T03:33:15;14.10;1.00
9167;DHT22;4618;48.818;9.088;2022-10-18T03:35:40;14.10;1.00
9167;DHT22;4618;48.818;9.088;2022-10-18T03:38:06;14.00;1.00
9167;DHT22;4618;48.818;9.088;2022-10-18T03:40:32;13.90;99.90
9167;DHT22;4618;48.818;9.088;2022-10-18T03:42:57;13.70;1.00
9167;DHT22;4618;48.818;9.088;2022-10-18T03:45:23;13.70;1.00
9167;DHT22;4618;48.818;9.088;2022-10-18T03:47:48;13.60;1.00
9167;DHT22;4618;48.818;9.088;2022-10-18T03:50:14;13.50;1.00
9167;DHT22;4618;48.818;9.088;2022-10-18T03:52:39;13.50;70.00
9167;DHT22;4618;48.818;9.088;2022-10-18T03:55:05;13.40;78.10
9167;DHT22;4618;48.818;9.088;2022-10-18T03:57:31;13.40;70.20
9167;DHT22;4618;48.818;9.088;2022-10-18T03:59:57;13.40;53.70
9167;DHT22;4618;48.818;9.088;2022-10-18T04:02:22;13.40;9.10
9167;DHT22;4618;48.818;9.088;2022-10-18T04:04:48;13.50;1.00
9167;DHT22;4618;48.818;9.088;2022-10-18T04:07:14;13.50;1.00
9167;DHT22;4618;48.818;9.088;2022-10-18T04:09:39;13.60;1.00
9167;DHT22;4618;48.818;9.088;2022-10-18T04:12:05;13.60;99.90
9167;DHT22;4618;48.818;9.088;2022-10-18T04:14:30;13.70;91.20
9167;DHT22;4618;48.818;9.088;2022-10-18T04:16:56;13.90;1.00
9167;DHT22;4618;48.818;9.088;2022-10-18T04:19:21;14.00;38.20
9167;DHT22;4618;48.818;9.088;2022-10-18T04:21:47;14.40;1.00
9167;DHT22;4618;48.818;9.088;2022-10-18T04:24:13;15.00;99.90
9167;DHT22;4618;48.818;9.088;2022-10-18T04:26:40;15.60;99.90
9167;DHT22;4618;48.818;9.088;2022-10-18T04:29:06;16.00;1.00
9167;DHT22;4618;48.818;9.088;2022-10-18T04:31:31;16.30;1.00
9167;DHT22;4618;48.818;9.088;2022-10-18T04:33:57;16.40;99.90
9167;DHT22;4618;48.818;9.088;2022-10-18T04:36:23;16.60;1.00
9167;DHT22;4618;48.818;9.088;2022-10-18T04:38:48;16.70;1.00
9167;DHT22;4618;48.818;9.088;2022-10-18T04:41:14;16.90;1.00
9167;DHT22;4618;48.818;9.088;2022-10-18T04:43:39;16.90;1.00
9167;DHT22;4618;48.818;9.088;2022-10-18T04:46:05;17.00;1.00
9167;DHT22;4618;48.818;9.088;2022-10-18T04:48:30;17.00;1.00
9167;DHT22;4618;48.818;9.088;2022-10-18T04:50:56;16.90;1.00
9167;DHT22;4618;48.818;9.088;2022-10-18T04:53:22;16.80;1.00
9167;DHT22;4618;48.818;9.088;2022-10-18T04:55:48;16.70;99.90
9167;DHT22;4618;48.818;9.088;2022-10-18T04:58:15;16.70;99.90
9167;DHT22;4618;48.818;9.088;2022-10-18T05:00:41;16.60;99.90
9167;DHT22;4618;48.818;9.088;2022-10-18T05:03:08;16.50;99.90
9167;DHT22;4618;48.818;9.088;2022-10-18T05:05:34;16.40;99.90
9167;DHT22;4618;48.818;9.088;2022-10-18T05:07:59;16.30;1.00
9167;DHT22;4618;48.818;9.088;2022-10-18T05:10:25;16.30;1.00
9167;DHT22;4618;48.818;9.088;2022-10-18T05:12:51;16.20;99.90
9167;DHT22;4618;48.818;9.088;2022-10-18T05:15:16;16.30;99.90
9167;DHT22;4618;48.818;9.088;2022-10-18T05:17:42;16.20;99.90
9167;DHT22;4618;48.818;9.088;2022-10-18T05:20:08;16.20;1.00
9167;DHT22;4618;48.818;9.088;2022-10-18T05:22:33;16.10;1.00
9167;DHT22;4618;48.818;9.088;2022-10-18T05:24:59;16.00;1.00
9167;DHT22;4618;48.818;9.088;2022-10-18T05:27:24;15.90;1.00
9167;DHT22;4618;48.818;9.088;2022-10-18T05:29:50;15.90;1.00
9167;DHT22;4618;48.818;9.088;2022-10-18T05:32:16;15.80;20.90
9167;DHT22;4618;48.818;9.088;2022-10-18T05:34:41;15.80;34.60
9167;DHT22;4618;48.818;9.088;2022-10-18T05:37:07;15.80;15.10
9167;DHT22;4618;48.818;9.088;2022-10-18T05:39:32;15.80;3.40
9167;DHT22;4618;48.818;9.088;2022-10-18T05:41:58;15.80;1.00
9167;DHT22;4618;48.818;9.088;2022-10-18T05:44:24;15.80;1.00
9167;DHT22;4618;48.818;9.088;2022-10-18T05:46:50;15.80;1.00
9167;DHT22;4618;48.818;9.088;2022-10-18T05:49:15;15.90;1.00
9167;DHT22;4618;48.818;9.088;2022-10-18T05:51:41;16.10;1.00
9167;DHT22;4618;48.818;9.088;2022-10-18T05:54:06;16.10;1.00
9167;DHT22;4618;48.818;9.088;2022-10-18T05:56:32;16.10;99.90
9167;DHT22;4618;48.818;9.088;2022-10-18T05:58:57;16.20;99.90
9167;DHT22;4618;48.818;9.088;2022-10-18T06:01:23;16.30;67.80
9167;DHT22;4618;48.818;9.088;2022-10-18T06:03:49;16.40;1.00
9167;DHT22;4618;48.818;9.088;2022-10-18T06:06:15;16.50;1.00
9167;DHT22;4618;48.818;9.088;2022-10-18T06:08:42;16.40;1.00
9167;DHT22;4618;48.818;9.088;2022-10-18T06:11:15;16.40;81.90
9167;DHT22;4618;48.818;9.088;2022-10-18T06:13:42;16.30;91.10
9167;DHT22;4618;48.818;9.088;2022-10-18T06:16:08;16.40;27.60
9167;DHT22;4618;48.818;9.088;2022-10-18T06:18:34;16.50;1.00
9167;DHT22;4618;48.818;9.088;2022-10-18T06:21:00;16.60;1.00
9167;DHT22;4618;48.818;9.088;2022-10-18T06:23:26;16.70;1.00
9167;DHT22;4618;48.818;9.088;2022-10-18T06:25:52;16.70;1.00
9167;DHT22;4618;48.818;9.088;2022-10-18T06:28:18;16.80;1.00
9167;DHT22;4618;48.818;9.088;2022-10-18T06:30:43;16.90;1.00
9167;DHT22;4618;48.818;9.088;2022-10-18T06:33:09;17.10;1.00
9167;DHT22;4618;48.818;9.088;2022-10-18T06:35:37;17.00;1.00
9167;DHT22;4618;48.818;9.088;2022-10-18T06:38:03;17.00;1.00
9167;DHT22;4618;48.818;9.088;2022-10-18T06:40:28;17.10;1.00
9167;DHT22;4618;48.818;9.088;2022-10-18T06:42:55;17.00;1.00
9167;DHT22;4618;48.818;9.088;2022-10-18T06:45:20;17.10;1.00
9167;DHT22;4618;48.818;9.088;2022-10-18T06:47:46;17.20;99.90
9167;DHT22;4618;48.818;9.088;2022-10-18T06:50:12;17.30;99.90
9167;DHT22;4618;48.818;9.088;2022-10-18T06:52:37;17.30;99.90
9167;DHT22;4618;48.818;9.088;2022-10-18T06:55:03;17.20;99.90
9167;DHT22;4618;48.818;9.088;2022-10-18T06:57:29;17.30;99.90
9167;DHT22;4618;48.818;9.088;2022-10-18T06:59:56;17.40;99.90
9167;DHT22;4618;48.818;9.088;2022-10-18T07:02:21;17.40;99.90
9167;DHT22;4618;48.818;9.088;2022-10-18T07:04:47;17.40;99.90
9167;DHT22;4618;48.818;9.088;2022-10-18T07:07:12;17.50;99.90
9167;DHT22;4618;48.818;9.088;2022-10-18T07:09:38;17.50;99.90
9167;DHT22;4618;48.818;9.088;2022-10-18T07:12:03;17.50;99.90
9167;DHT22;4618;48.818;9.088;2022-10-18T07:14:29;17.60;99.90
9167;DHT22;4618;48.818;9.088;2022-10-18T07:16:58;17.60;99.90
9167;DHT22;4618;48.818;9.088;2022-10-18T07:19:23;17.50;1.00
9167;DHT22;4618;48.818;9.088;2022-10-18T07:21:49;17.50;1.00
9167;DHT22;4618;48.818;9.088;2022-10-18T07:24:14;17.50;1.00
9167;DHT22;4618;48.818;9.088;2022-10-18T07:26:40;17.50;99.90
9167;DHT22;4618;48.818;9.088;2022-10-18T07:29:09;17.50;99.90
9167;DHT22;4618;48.818;9.088;2022-10-18T07:31:35;17.60;99.90
9167;DHT22;4618;48.818;9.088;2022-10-18T07:34:03;17.70;99.90
9167;DHT22;4618;48.818;9.088;2022-10-18T07:36:29;17.80;99.90
9167;DHT22;4618;48.818;9.088;2022-10-18T07:38:55;17.90;99.90
9167;DHT22;4618;48.818;9.088;2022-10-18T07:41:21;17.90;99.90
9167;DHT22;4618;48.818;9.088;2022-10-18T07:43:49;18.00;71.30
9167;DHT22;4618;48.818;9.088;2022-10-18T07:46:19;18.20;1.00
9167;DHT22;4618;48.818;9.088;2022-10-18T07:48:45;18.20;1.00
9167;DHT22;4618;48.818;9.088;2022-10-18T07:51:11;18.30;1.00
9167;DHT22;4618;48.818;9.088;2022-10-18T07:53:37;18.40;1.00
9167;DHT22;4618;48.818;9.088;2022-10-18T07:56:10;18.40;99.90
9167;DHT22;4618;48.818;9.088;2022-10-18T07:58:41;18.60;1.00
9167;DHT22;4618;48.818;9.088;2022-10-18T08:01:07;18.60;99.90
9167;DHT22;4618;48.818;9.088;2022-10-18T08:03:34;18.80;99.90
9167;DHT22;4618;48.818;9.088;2022-10-18T08:06:00;18.80;99.90
9167;DHT22;4618;48.818;9.088;2022-10-18T08:08:27;18.70;99.90
9167;DHT22;4618;48.818;9.088;2022-10-18T08:10:53;18.80;99.90
9167;DHT22;4618;48.818;9.088;2022-10-18T08:13:18;18.80;99.90
9167;DHT22;4618;48.818;9.088;2022-10-18T08:15:44;18.80;1.00
9167;DHT22;4618;48.818;9.088;2022-10-18T08:18:10;18.70;1.00
9167;DHT22;4618;48.818;9.088;2022-10-18T08:20:36;18.80;1.00
9167;DHT22;4618;48.818;9.088;2022-10-18T08:23:03;18.90;1.00
9167;DHT22;4618;48.818;9.088;2022-10-18T08:25:29;18.90;1.00
9167;DHT22;4618;48.818;9.088;2022-10-18T08:27:55;18.90;1.00
9167;DHT22;4618;48.818;9.088;2022-10-18T08:30:20;19.10;1.00
9167;DHT22;4618;48.818;9.088;2022-10-18T08:32:47;19.20;1.00
9167;DHT22;4618;48.818;9.088;2022-10-18T08:35:13;19.30;1.00
9167;DHT22;4618;48.818;9.088;2022-10-18T08:37:38;19.30;1.00
9167;DHT22;4618;48.818;9.088;2022-10-18T08:40:05;19.40;1.00
9167;DHT22;4618;48.818;9.088;2022-10-18T08:45:22;19.70;99.90
9167;DHT22;4618;48.818;9.088;2022-10-18T08:47:49;20.10;99.90
9167;DHT22;4618;48.818;9.088;2022-10-18T08:50:21;20.40;99.90
9167;DHT22;4618;48.818;9.088;2022-10-18T08:55:41;21.10;1.00
9167;DHT22;4618;48.818;9.088;2022-10-18T08:58:22;22.40;99.90
9167;DHT22;4618;48.818;9.088;2022-10-18T09:06:18;26.90;1.00
9167;DHT22;4618;48.818;9.088;2022-10-18T09:09:00;26.90;1.00
9167;DHT22;4618;48.818;9.088;2022-10-18T09:19:45;24.80;99.90
9167;DHT22;4618;48.818;9.088;2022-10-18T09:22:21;23.80;99.90
9167;DHT22;4618;48.818;9.088;2022-10-18T09:27:17;22.90;1.00
9167;DHT22;4618;48.818;9.088;2022-10-18T09:32:26;23.30;1.00
9167;DHT22;4618;48.818;9.088;2022-10-18T09:35:19;23.00;99.90
9167;DHT22;4618;48.818;9.088;2022-10-18T09:37:43;22.10;1.00
9167;DHT22;4618;48.818;9.088;2022-10-18T09:40:19;21.30;99.90
9167;DHT22;4618;48.818;9.088;2022-10-18T09:43:02;21.60;99.90
9167;DHT22;4618;48.818;9.088;2022-10-18T09:45:32;22.70;1.00
9167;DHT22;4618;48.818;9.088;2022-10-18T09:48:20;23.40;99.90
9167;DHT22;4618;48.818;9.088;2022-10-18T10:01:05;28.50;99.90
9167;DHT22;4618;48.818;9.088;2022-10-18T10:03:33;27.70;99.90
9167;DHT22;4618;48.818;9.088;2022-10-18T10:08:47;27.50;99.90
9167;DHT22;4618;48.818;9.088;2022-10-18T10:11:30;28.80;99.90
9167;DHT22;4618;48.818;9.088;2022-10-18T10:14:20;28.90;99.90
9167;DHT22;4618;48.818;9.088;2022-10-18T10:19:34;29.80;99.90
9167;DHT22;4618;48.818;9.088;2022-10-18T10:22:05;31.40;99.90
9167;DHT22;4618;48.818;9.088;2022-10-18T10:24:47;31.70;99.90
9167;DHT22;4618;48.818;9.088;2022-10-18T10:27:37;31.70;99.90
9167;DHT22;4618;48.818;9.088;2022-10-18T10:32:50;32.60;99.90
9167;DHT22;4618;48.818;9.088;2022-10-18T10:35:38;32.70;99.90
9167;DHT22;4618;48.818;9.088;2022-10-18T10:38:05;33.10;99.90
9167;DHT22;4618;48.818;9.088;2022-10-18T10:40:47;33.60;99.90
9167;DHT22;4618;48.818;9.088;2022-10-18T10:43:26;33.60;99.90
9167;DHT22;4618;48.818;9.088;2022-10-18T10:46:09;32.90;99.90
9167;DHT22;4618;48.818;9.088;2022-10-18T10:54:00;33.50;99.90
9167;DHT22;4618;48.818;9.088;2022-10-18T10:56:35;32.70;99.90
9167;DHT22;4618;48.818;9.088;2022-10-18T10:59:17;33.50;99.90
9167;DHT22;4618;48.818;9.088;2022-10-18T11:01:43;33.60;99.90
9167;DHT22;4618;48.818;9.088;2022-10-18T11:04:28;33.10;99.90
9167;DHT22;4618;48.818;9.088;2022-10-18T11:17:59;28.60;99.90
9167;DHT22;4618;48.818;9.088;2022-10-18T11:25:24;28.20;99.90
9167;DHT22;4618;48.818;9.088;2022-10-18T11:38:49;29.20;99.90
9167;DHT22;4618;48.818;9.088;2022-10-18T11:41:38;27.60;99.90
9167;DHT22;4618;48.818;9.088;2022-10-18T11:52:37;25.80;99.90
9167;DHT22;4618;48.818;9.088;2022-10-18T11:58:06;26.00;99.90
9167;DHT22;4618;48.818;9.088;2022-10-18T12:03:49;25.50;99.90
9167;DHT22;4618;48.818;9.088;2022-10-18T12:06:21;24.80;99.90
9167;DHT22;4618;48.818;9.088;2022-10-18T12:08:54;24.70;99.90
9167;DHT22;4618;48.818;9.088;2022-10-18T12:11:29;26.10;99.90
9167;DHT22;4618;48.818;9.088;2022-10-18T12:14:06;26.90;99.90
9167;DHT22;4618;48.818;9.088;2022-10-18T12:16:38;27.20;99.90
9167;DHT22;4618;48.818;9.088;2022-10-18T12:19:12;27.00;99.90
9167;DHT22;4618;48.818;9.088;2022-10-18T12:21:42;27.20;99.90
9167;DHT22;4618;48.818;9.088;2022-10-18T12:24:11;27.50;99.90
9167;DHT22;4618;48.818;9.088;2022-10-18T12:26:40;27.10;99.90
9167;DHT22;4618;48.818;9.088;2022-10-18T12:29:26;27.30;99.90
9167;DHT22;4618;48.818;9.088;2022-10-18T12:31:56;27.40;99.90
9167;DHT22;4618;48.818;9.088;2022-10-18T12:34:27;27.50;99.90
9167;DHT22;4618;48.818;9.088;2022-10-18T12:39:50;28.20;99.90
9167;DHT22;4618;48.818;9.088;2022-10-18T12:42:20;28.40;99.90
9167;DHT22;4618;48.818;9.088;2022-10-18T12:44:47;28.80;99.90
9167;DHT22;4618;48.818;9.088;2022-10-18T12:47:24;28.70;99.90
9167;DHT22;4618;48.818;9.088;2022-10-18T12:50:02;28.10;99.90
9167;DHT22;4618;48.818;9.088;2022-10-18T12:52:30;27.10;99.90
9167;DHT22;4618;48.818;9.088;2022-10-18T13:00:50;25.10;99.90
9167;DHT22;4618;48.818;9.088;2022-10-18T13:16:50;27.60;99.90
9167;DHT22;4618;48.818;9.088;2022-10-18T13:22:22;26.70;99.90
9167;DHT22;4618;48.818;9.088;2022-10-18T13:27:49;27.80;99.90
9167;DHT22;4618;48.818;9.088;2022-10-18T13:32:59;27.90;99.90
9167;DHT22;4618;48.818;9.088;2022-10-18T13:38:30;27.90;99.90
9167;DHT22;4618;48.818;9.088;2022-10-18T13:41:09;28.40;99.90
9167;DHT22;4618;48.818;9.088;2022-10-18T13:54:42;25.50;99.90
9167;DHT22;4618;48.818;9.088;2022-10-18T14:05:59;26.90;99.90
9167;DHT22;4618;48.818;9.088;2022-10-18T14:11:26;25.60;99.90
9167;DHT22;4618;48.818;9.088;2022-10-18T14:14:20;24.20;1.00
9167;DHT22;4618;48.818;9.088;2022-10-18T14:16:55;23.20;49.80
9167;DHT22;4618;48.818;9.088;2022-10-18T14:19:32;22.60;99.90
9167;DHT22;4618;48.818;9.088;2022-10-18T14:22:19;22.20;1.00
9167;DHT22;4618;48.818;9.088;2022-10-18T14:24:53;22.00;1.00
9167;DHT22;4618;48.818;9.088;2022-10-18T14:27:24;21.80;99.90
9167;DHT22;4618;48.818;9.088;2022-10-18T14:30:07;21.60;99.90
9167;DHT22;4618;48.818;9.088;2022-10-18T14:32:33;21.40;99.90
9167;DHT22;4618;48.818;9.088;2022-10-18T14:34:59;21.40;1.00
9167;DHT22;4618;48.818;9.088;2022-10-18T14:37:28;21.10;1.00
9167;DHT22;4618;48.818;9.088;2022-10-18T14:39:54;21.10;1.00
9167;DHT22;4618;48.818;9.088;2022-10-18T14:42:25;21.10;1.00
9167;DHT22;4618;48.818;9.088;2022-10-18T14:44:52;21.10;1.00
9167;DHT22;4618;48.818;9.088;2022-10-18T14:47:22;21.00;99.90
9167;DHT22;4618;48.818;9.088;2022-10-18T14:49:48;21.00;99.90
9167;DHT22;4618;48.818;9.088;2022-10-18T14:52:16;21.10;99.90
9167;DHT22;4618;48.818;9.088;2022-10-18T14:54:42;21.20;1.00
9167;DHT22;4618;48.818;9.088;2022-10-18T14:57:21;21.20;99.90
9167;DHT22;4618;48.818;9.088;2022-10-18T14:59:51;21.20;99.90
9167;DHT22;4618;48.818;9.088;2022-10-18T15:02:25;21.90;99.90
9167;DHT22;4618;48.818;9.088;2022-10-18T15:05:04;23.10;1.00
9167;DHT22;4618;48.818;9.088;2022-10-18T15:07:30;24.10;1.00
9167;DHT22;4618;48.818;9.088;2022-10-18T15:09:59;24.00;1.00
9167;DHT22;4618;48.818;9.088;2022-10-18T15:12:27;23.50;1.00
9167;DHT22;4618;48.818;9.088;2022-10-18T15:14:53;22.70;99.90
9167;DHT22;4618;48.818;9.088;2022-10-18T15:17:28;22.00;1.00
9167;DHT22;4618;48.818;9.088;2022-10-18T15:20:03;21.60;99.90
9167;DHT22;4618;48.818;9.088;2022-10-18T15:22:42;21.20;1.00
9167;DHT22;4618;48.818;9.088;2022-10-18T15:25:12;20.90;1.00
9167;DHT22;4618;48.818;9.088;2022-10-18T15:27:49;20.70;1.00
9167;DHT22;4618;48.818;9.088;2022-10-18T15:30:28;20.90;1.00
9167;DHT22;4618;48.818;9.088;2022-10-18T15:33:01;21.20;99.90
9167;DHT22;4618;48.818;9.088;2022-10-18T15:35:30;20.90;1.00
9167;DHT22;4618;48.818;9.088;2022-10-18T15:37:59;20.70;1.00
9167;DHT22;4618;48.818;9.088;2022-10-18T15:40:29;20.60;6.30
9167;DHT22;4618;48.818;9.088;2022-10-18T15:43:04;20.40;99.90
9167;DHT22;4618;48.818;9.088;2022-10-18T15:45:36;20.20;99.90
9167;DHT22;4618;48.818;9.088;2022-10-18T15:50:55;20.10;1.00
9167;DHT22;4618;48.818;9.088;2022-10-18T16:00:46;19.80;1.00
9167;DHT22;4618;48.818;9.088;2022-10-18T16:03:13;19.80;1.00
9167;DHT22;4618;48.818;9.088;2022-10-18T16:05:39;20.10;99.90
9167;DHT22;4618;48.818;9.088;2022-10-18T16:08:05;20.00;99.90
9167;DHT22;4618;48.818;9.088;2022-10-18T16:10:30;19.80;99.90
9167;DHT22;4618;48.818;9.088;2022-10-18T16:12:56;19.70;99.90
9167;DHT22;4618;48.818;9.088;2022-10-18T16:15:22;19.60;1.00
9167;DHT22;4618;48.818;9.088;2022-10-18T16:17:48;19.40;1.00
9167;DHT22;4618;48.818;9.088;2022-10-18T16:20:22;19.30;39.90
9167;DHT22;4618;48.818;9.088;2022-10-18T16:22:48;19.20;99.90
9167;DHT22;4618;48.818;9.088;2022-10-18T16:25:14;19.10;99.90
9167;DHT22;4618;48.818;9.088;2022-10-18T16:27:39;18.80;1.00
9167;DHT22;4618;48.818;9.088;2022-10-18T16:30:12;18.70;1.00
9167;DHT22;4618;48.818;9.088;2022-10-18T16:32:38;18.50;95.60
9167;DHT22;4618;48.818;9.088;2022-10-18T16:35:05;18.40;99.90
9167;DHT22;4618;48.818;9.088;2022-10-18T16:37:31;18.30;1.00
9167;DHT22;4618;48.818;9.088;2022-10-18T16:39:56;18.20;1.00
9167;DHT22;4618;48.818;9.088;2022-10-18T16:42:22;18.20;1.00
9167;DHT22;4618;48.818;9.088;2022-10-18T16:44:47;18.10;1.00
9167;DHT22;4618;48.818;9.088;2022-10-18T16:47:13;18.10;27.50
9167;DHT22;4618;48.818;9.088;2022-10-18T16:49:39;18.10;1.00
9167;DHT22;4618;48.818;9.088;2022-10-18T16:52:04;18.10;1.00
9167;DHT22;4618;48.818;9.088;2022-10-18T16:54:30;18.20;1.00
9167;DHT22;4618;48.818;9.088;2022-10-18T16:56:55;18.30;1.00
9167;DHT22;4618;48.818;9.088;2022-10-18T16:59:29;18.30;99.90
9167;DHT22;4618;48.818;9.088;2022-10-18T17:01:55;18.30;99.90
9167;DHT22;4618;48.818;9.088;2022-10-18T17:04:21;18.30;99.90
9167;DHT22;4618;48.818;9.088;2022-10-18T17:06:46;18.10;99.90
9167;DHT22;4618;48.818;9.088;2022-10-18T17:09:13;18.10;1.00
9167;DHT22;4618;48.818;9.088;2022-10-18T17:11:39;18.00;1.00
9167;DHT22;4618;48.818;9.088;2022-10-18T17:14:05;18.00;1.00
9167;DHT22;4618;48.818;9.088;2022-10-18T17:16:33;17.90;21.80
9167;DHT22;4618;48.818;9.088;2022-10-18T17:19:01;17.80;99.90
9167;DHT22;4618;48.818;9.088;2022-10-18T17:21:28;17.80;99.90
9167;DHT22;4618;48.818;9.088;2022-10-18T17:23:54;17.60;1.00
9167;DHT22;4618;48.818;9.088;2022-10-18T17:26:22;17.50;1.00
9167;DHT22;4618;48.818;9.088;2022-10-18T17:28:52;17.50;1.00
9167;DHT22;4618;48.818;9.088;2022-10-18T17:31:18;17.40;99.90
9167;DHT22;4618;48.818;9.088;2022-10-18T17:33:44;17.30;99.90
9167;DHT22;4618;48.818;9.088;2022-10-18T17:36:10;17.20;1.00
9167;DHT22;4618;48.818;9.088;2022-10-18T17:38:35;17.00;1.00
9167;DHT22;4618;48.818;9.088;2022-10-18T17:41:19;16.90;99.90
9167;DHT22;4618;48.818;9.088;2022-10-18T17:43:45;16.80;1.00
9167;DHT22;4618;48.818;9.088;2022-10-18T17:46:12;16.80;1.00
9167;DHT22;4618;48.818;9.088;2022-10-18T17:48:39;16.80;1.00
9167;DHT22;4618;48.818;9.088;2022-10-18T17:51:12;16.60;99.90
9167;DHT22;4618;48.818;9.088;2022-10-18T17:53:38;16.50;99.90
9167;DHT22;4618;48.818;9.088;2022-10-18T17:56:04;16.50;99.90
9167;DHT22;4618;48.818;9.088;2022-10-18T17:58:30;16.50;1.00
9167;DHT22;4618;48.818;9.088;2022-10-18T18:00:56;16.40;1.00
9167;DHT22;4618;48.818;9.088;2022-10-18T18:03:22;16.30;1.00
9167;DHT22;4618;48.818;9.088;2022-10-18T18:05:47;16.10;1.00
9167;DHT22;4618;48.818;9.088;2022-10-18T18:08:14;16.00;99.90
9167;DHT22;4618;48.818;9.088;2022-10-18T18:10:39;16.00;99.90
9167;DHT22;4618;48.818;9.088;2022-10-18T18:13:05;15.80;99.90
9167;DHT22;4618;48.818;9.088;2022-10-18T18:15:30;15.70;1.00
9167;DHT22;4618;48.818;9.088;2022-10-18T18:17:56;15.70;1.00
9167;DHT22;4618;48.818;9.088;2022-10-18T18:20:22;15.90;1.00
9167;DHT22;4618;48.818;9.088;2022-10-18T18:22:49;15.80;1.00
9167;DHT22;4618;48.818;9.088;2022-10-18T18:25:15;15.90;97.60
9167;DHT22;4618;48.818;9.088;2022-10-18T18:27:41;15.80;1.00
9167;DHT22;4618;48.818;9.088;2022-10-18T18:30:06;15.80;1.00
9167;DHT22;4618;48.818;9.088;2022-10-18T18:32:32;15.80;73.20
9167;DHT22;4618;48.818;9.088;2022-10-18T18:34:58;15.70;99.90
9167;DHT22;4618;48.818;9.088;2022-10-18T18:37:23;15.80;99.90
9167;DHT22;4618;48.818;9.088;2022-10-18T18:39:49;15.80;99.90
9167;DHT22;4618;48.818;9.088;2022-10-18T18:42:15;15.80;1.00
9167;DHT22;4618;48.818;9.088;2022-10-18T18:44:40;15.80;99.90
9167;DHT22;4618;48.818;9.088;2022-10-18T18:47:10;15.70;99.90
9167;DHT22;4618;48.818;9.088;2022-10-18T18:49:36;15.60;99.90
9167;DHT22;4618;48.818;9.088;2022-10-18T18:52:02;15.50;1.00
9167;DHT22;4618;48.818;9.088;2022-10-18T18:54:27;15.40;1.00
9167;DHT22;4618;48.818;9.088;2022-10-18T18:56:54;15.30;99.90
9167;DHT22;4618;48.818;9.088;2022-10-18T18:59:20;15.30;1.00
9167;DHT22;4618;48.818;9.088;2022-10-18T19:01:45;15.20;1.00
9167;DHT22;4618;48.818;9.088;2022-10-18T19:04:11;15.20;1.00
9167;DHT22;4618;48.818;9.088;2022-10-18T19:06:42;15.10;1.00
9167;DHT22;4618;48.818;9.088;2022-10-18T19:09:11;15.10;1.00
9167;DHT22;4618;48.818;9.088;2022-10-18T19:11:44;15.00;1.00
9167;DHT22;4618;48.818;9.088;2022-10-18T19:14:11;14.90;1.00